Time;durP1;ratioP1;P1;durP2;ratioP2;P2;SDS_P1;SDS_P2;PMS_P1;PMS_P2;Temp;Humidity;BMP_temperature;BMP_pressure;BME280_temperature;BME280_humidity;BME280_pressure;Samples;Min_cycle;Max_cycle;Signal;HPM_P1;HPM_P2
2022/12/02 00:00:35;;;;;;;;;;;;;;;19.01;37.19;95823.19;10428874;28;2628;-57
2022/12/02 00:05:35;;;;;;;;;;;;;;;19.00;37.43;95819.75;10431467;28;2609;-55
2022/12/02 00:10:36;;;;;;;;;;;;;;;19.01;37.17;95823.19;10435272;28;2576;-54
2022/12/02 00:15:41;;;;;;;;;;;;;;;18.93;37.39;95815.81;10428502;28;2614;-55
2022/12/02 00:20:42;;;;;;;;;;;;;;;18.92;37.31;95814.25;10411823;28;2581;-53
2022/12/02 00:25:44;;;;;;;;;;;;;;;18.91;37.39;95807.41;10438529;28;2615;-54
2022/12/02 00:30:44;;;;;;;;;;;;;;;18.88;37.40;95808.72;10436869;28;2565;-54
2022/12/02 00:35:44;;;;;;;;;;;;;;;18.85;37.65;95804.00;10430151;28;2608;-56
2022/12/02 00:40:45;;;;;;;;;;;;;;;18.86;37.75;95800.31;10431148;28;2616;-54
2022/12/02 00:51:14;;;;;;;;;;;;;;;18.80;37.81;95790.84;10433119;28;2626;-54
2022/12/02 00:56:15;;;;;;;;;;;;;;;18.80;37.68;95792.69;10435401;28;2600;-55
2022/12/02 01:01:18;;;;;;;;;;;;;;;18.75;37.78;95801.38;10440144;28;2161;-56
2022/12/02 01:06:18;;;;;;;;;;;;;;;18.74;37.69;95799.78;10435865;28;2154;-56
2022/12/02 01:11:18;;;;;;;;;;;;;;;18.75;37.67;95793.50;10440203;28;2633;-55
2022/12/02 01:16:18;;;;;;;;;;;;;;;18.72;37.76;95801.06;10433844;28;2713;-55
2022/12/02 01:21:20;;;;;;;;;;;;;;;18.71;37.66;95792.44;10435135;28;2521;-53
2022/12/02 01:26:20;;;;;;;;;;;;;;;18.67;37.76;95784.25;10438918;28;2190;-54
2022/12/02 01:31:21;;;;;;;;;;;;;;;18.64;37.65;95779.56;10431601;28;2597;-56
2022/12/02 01:36:21;;;;;;;;;;;;;;;18.65;37.50;95781.13;10436635;28;2625;-55
2022/12/02 01:41:21;;;;;;;;;;;;;;;18.63;37.52;95782.41;10422391;28;2624;-52
2022/12/02 01:46:21;;;;;;;;;;;;;;;18.59;37.48;95770.84;10449588;28;2905;-55
2022/12/02 01:51:22;;;;;;;;;;;;;;;18.58;37.55;95772.72;10438915;28;2585;-56
2022/12/02 01:56:22;;;;;;;;;;;;;;;18.59;37.42;95770.84;10432258;28;2154;-56
2022/12/02 02:01:26;;;;;;;;;;;;;;;18.57;37.40;95773.75;10441276;28;2573;-53
2022/12/02 02:06:30;;;;;;;;;;;;;;;18.56;37.51;95771.41;10433197;28;2820;-53
2022/12/02 02:11:30;;;;;;;;;;;;;;;18.55;37.31;95767.97;10451257;28;2593;-55
2022/12/02 02:16:31;;;;;;;;;;;;;;;18.51;37.33;95761.66;10434612;28;2710;-53
2022/12/02 02:21:35;;;;;;;;;;;;;;;18.51;37.37;95763.50;10434485;28;2575;-56
2022/12/02 02:26:39;;;;;;;;;;;;;;;18.50;37.42;95754.06;10431779;28;2680;-55
2022/12/02 02:31:40;;;;;;;;;;;;;;;18.47;37.39;95754.56;10436738;28;2613;-57
2022/12/02 02:36:40;;;;;;;;;;;;;;;18.45;37.28;95759.28;10431691;28;2222;-56
2022/12/02 02:41:40;;;;;;;;;;;;;;;18.47;37.21;95751.94;10436732;28;2596;-55
2022/12/02 02:46:41;;;;;;;;;;;;;;;18.42;37.29;95750.06;10429014;28;2580;-56
2022/12/02 02:51:41;;;;;;;;;;;;;;;18.40;37.42;95741.66;10433763;28;2623;-56
2022/12/02 02:56:42;;;;;;;;;;;;;;;18.40;37.51;95741.66;10436160;28;2158;-56
2022/12/02 03:01:43;;;;;;;;;;;;;;;18.41;37.33;95737.19;10440450;28;2671;-56
2022/12/02 03:06:44;;;;;;;;;;;;;;;18.38;37.32;95740.38;10436628;28;2620;-53
2022/12/02 03:11:45;;;;;;;;;;;;;;;18.37;37.37;95733.53;10444979;28;2191;-54
2022/12/02 03:16:45;;;;;;;;;;;;;;;18.34;37.39;95723.56;10441704;28;2622;-55
2022/12/02 03:21:46;;;;;;;;;;;;;;;18.35;37.26;95727.75;10428068;28;2769;-54
2022/12/02 03:26:46;;;;;;;;;;;;;;;18.32;37.36;95723.03;10438868;28;2559;-54
2022/12/02 03:31:46;;;;;;;;;;;;;;;18.31;37.34;95724.06;10455956;28;2563;-52
2022/12/02 03:36:47;;;;;;;;;;;;;;;18.28;37.36;95716.72;10434754;28;2609;-55
2022/12/02 03:41:47;;;;;;;;;;;;;;;18.27;37.30;95720.38;10441934;28;2552;-55
2022/12/02 03:46:47;;;;;;;;;;;;;;;18.29;37.29;95718.28;10436068;28;2560;-52
2022/12/02 03:51:52;;;;;;;;;;;;;;;18.27;37.27;95718.56;10445191;28;2724;-56
2022/12/02 03:56:52;;;;;;;;;;;;;;;18.27;37.14;95715.13;10443251;28;2598;-55
2022/12/02 04:01:54;;;;;;;;;;;;;;;18.23;37.18;95714.88;10462401;28;2570;-55
2022/12/02 04:06:54;;;;;;;;;;;;;;;18.23;37.29;95711.44;10439780;28;2560;-55
2022/12/02 04:11:54;;;;;;;;;;;;;;;18.21;37.15;95706.47;10441286;28;2316;-52
2022/12/02 04:16:54;;;;;;;;;;;;;;;18.19;37.26;95707.78;10442061;28;2586;-55
2022/12/02 04:21:55;;;;;;;;;;;;;;;18.20;37.20;95701.47;10441494;28;2620;-54
2022/12/02 04:26:55;;;;;;;;;;;;;;;18.17;37.29;95700.16;10439188;28;2607;-50
2022/12/02 04:31:56;;;;;;;;;;;;;;;18.17;37.20;95699.38;10437230;28;2142;-55
2022/12/02 04:36:56;;;;;;;;;;;;;;;18.15;37.34;95694.41;10419952;28;2622;-54
2022/12/02 04:41:56;;;;;;;;;;;;;;;18.12;37.30;95694.09;10441316;28;2559;-54
2022/12/02 04:46:57;;;;;;;;;;;;;;;18.16;37.13;95695.16;10428216;28;2668;-55
2022/12/02 04:51:58;;;;;;;;;;;;;;;18.12;37.36;95687.03;10445576;28;2594;-55
2022/12/02 04:56:58;;;;;;;;;;;;;;;18.12;37.06;95694.91;10445395;28;2729;-53
2022/12/02 05:01:58;;;;;;;;;;;;;;;18.19;37.03;95689.41;10428247;28;2670;-56
2022/12/02 05:06:58;;;;;;;;;;;;;;;18.26;37.15;95695.22;10428860;28;2574;-54
2022/12/02 05:11:59;;;;;;;;;;;;;;;18.41;36.86;95688.13;10431699;28;2138;-52
2022/12/02 05:16:59;;;;;;;;;;;;;;;18.54;36.69;95686.88;10427822;28;2692;-55
2022/12/02 05:21:59;;;;;;;;;;;;;;;18.65;36.79;95680.56;10434199;28;2583;-53
2022/12/02 05:27:00;;;;;;;;;;;;;;;18.71;36.56;95684.78;10439352;28;2094;-56
2022/12/02 05:32:00;;;;;;;;;;;;;;;18.74;36.67;95684.25;10437341;28;2608;-53
2022/12/02 05:37:02;;;;;;;;;;;;;;;18.78;36.52;95682.66;10436833;28;2639;-55
2022/12/02 05:42:04;;;;;;;;;;;;;;;18.83;36.45;95682.66;10432799;28;2643;-55
2022/12/02 05:47:05;;;;;;;;;;;;;;;18.92;36.36;95677.69;10432055;28;2652;-53
2022/12/02 05:52:12;;;;;;;;;;;;;;;18.94;36.38;95684.22;10428511;28;2604;-55
2022/12/02 05:57:13;;;;;;;;;;;;;;;18.97;36.09;95683.69;10437058;28;2670;-56
2022/12/02 06:02:24;;;;;;;;;;;;;;;18.99;36.08;95681.59;10418472;28;2614;-54
2022/12/02 06:07:24;;;;;;;;;;;;;;;19.05;36.02;95685.00;10434860;28;2541;-56
2022/12/02 06:12:25;;;;;;;;;;;;;;;19.07;36.01;95683.69;10436189;28;2552;-56
2022/12/02 06:17:25;;;;;;;;;;;;;;;19.09;35.74;95680.78;10424157;28;2706;-56
2022/12/02 06:22:26;;;;;;;;;;;;;;;19.12;35.64;95681.06;10439637;28;2563;-56
2022/12/02 06:27:27;;;;;;;;;;;;;;;19.13;35.30;95677.38;10412218;28;2622;-53
2022/12/02 06:32:32;;;;;;;;;;;;;;;19.19;35.90;95689.44;10430859;28;2584;-54
2022/12/02 06:37:32;;;;;;;;;;;;;;;19.23;35.83;95687.84;10442446;28;2946;-56
2022/12/02 06:42:33;;;;;;;;;;;;;;;19.24;35.69;95684.19;10429225;28;2639;-55
2022/12/02 06:47:35;;;;;;;;;;;;;;;19.27;35.42;95686.28;10435339;28;2553;-54
2022/12/02 06:52:38;;;;;;;;;;;;;;;19.26;34.95;95684.72;10437960;28;2699;-56
2022/12/02 06:57:39;;;;;;;;;;;;;;;19.32;34.99;95685.47;10442429;28;2594;-56
2022/12/02 07:02:39;;;;;;;;;;;;;;;19.35;35.45;95690.25;10436647;28;2554;-55
2022/12/02 07:07:40;;;;;;;;;;;;;;;19.36;34.71;95686.53;10432771;28;2635;-56
2022/12/02 07:12:44;;;;;;;;;;;;;;;19.40;35.57;95683.13;10439991;28;2663;-53
2022/12/02 07:17:46;;;;;;;;;;;;;;;19.40;35.28;95688.38;10435480;28;2130;-55
2022/12/02 07:22:47;;;;;;;;;;;;;;;19.40;34.29;95684.97;10447865;28;2723;-55
2022/12/02 07:27:47;;;;;;;;;;;;;;;19.43;34.64;95681.81;10438464;28;2578;-55
2022/12/02 07:32:48;;;;;;;;;;;;;;;19.42;34.78;95686.28;10439152;28;2566;-54
2022/12/02 07:37:48;;;;;;;;;;;;;;;19.48;33.80;95687.81;10436676;28;2599;-54
2022/12/02 07:42:49;;;;;;;;;;;;;;;19.49;35.02;95684.13;10439621;28;2888;-54
2022/12/02 07:47:49;;;;;;;;;;;;;;;19.57;35.13;95682.03;10422629;28;2912;-55
2022/12/02 07:52:50;;;;;;;;;;;;;;;19.57;35.14;95692.53;10440644;28;2940;-53
2022/12/02 07:57:50;;;;;;;;;;;;;;;19.58;34.83;95688.88;10441431;28;2917;-54
2022/12/02 08:02:50;;;;;;;;;;;;;;;19.59;35.28;95690.44;10444354;28;2875;-55
2022/12/02 08:07:50;;;;;;;;;;;;;;;19.62;35.21;95682.00;10450102;28;2869;-54
2022/12/02 08:12:51;;;;;;;;;;;;;;;19.64;35.27;95688.56;10449992;28;2836;-55
2022/12/02 08:17:51;;;;;;;;;;;;;;;19.65;35.48;95684.09;10446814;28;2975;-53
2022/12/02 08:22:52;;;;;;;;;;;;;;;19.65;35.62;95684.09;10434290;28;2939;-55
2022/12/02 08:27:52;;;;;;;;;;;;;;;19.63;35.49;95686.19;10440176;28;2811;-55
2022/12/02 08:32:52;;;;;;;;;;;;;;;19.63;35.73;95686.19;10439772;28;2878;-54
2022/12/02 08:37:54;;;;;;;;;;;;;;;19.62;35.71;95679.38;10424515;28;2831;-53
2022/12/02 08:42:54;;;;;;;;;;;;;;;19.59;35.69;95690.44;10446015;28;3228;-56
2022/12/02 08:47:55;;;;;;;;;;;;;;;19.56;35.66;95689.09;10442980;28;2848;-54
2022/12/02 08:52:55;;;;;;;;;;;;;;;19.55;36.39;95684.91;10441747;28;2888;-50
2022/12/02 08:57:55;;;;;;;;;;;;;;;19.61;37.77;95680.41;10437487;28;2872;-52
2022/12/02 09:02:55;;;;;;;;;;;;;;;19.61;38.24;95680.41;10434846;28;2888;-49
2022/12/02 09:07:56;;;;;;;;;;;;;;;19.56;38.28;95664.69;10437797;28;2462;-50
2022/12/02 09:12:56;;;;;;;;;;;;;;;19.51;38.80;95675.22;10432915;28;3011;-52
2022/12/02 09:17:56;;;;;;;;;;;;;;;19.46;38.57;95668.13;10433399;28;2905;-49
2022/12/02 09:22:57;;;;;;;;;;;;;;;19.49;38.44;95681.50;10435002;28;2948;-53
2022/12/02 09:27:57;;;;;;;;;;;;;;;19.46;38.43;95670.75;10436269;28;3028;-47
2022/12/02 09:32:57;;;;;;;;;;;;;;;19.44;38.61;95667.59;10435574;28;3045;-50
2022/12/02 09:37:58;;;;;;;;;;;;;;;19.45;38.85;95664.69;10434512;28;2807;-48
2022/12/02 09:42:58;;;;;;;;;;;;;;;19.46;38.43;95666.28;10439491;28;2870;-50
2022/12/02 09:47:58;;;;;;;;;;;;;;;19.42;38.70;95662.63;10434930;28;2935;-50
2022/12/02 09:53:03;;;;;;;;;;;;;;;19.42;38.58;95659.19;10431508;28;2783;-53
2022/12/02 09:58:16;;;;;;;;;;;;;;;19.36;38.90;95650.53;10427071;28;2895;-52
2022/12/02 10:03:17;;;;;;;;;;;;;;;19.37;39.19;95654.72;10439868;28;2958;-52
2022/12/02 10:08:19;;;;;;;;;;;;;;;19.37;38.85;95651.34;10428231;28;2851;-53
2022/12/02 10:13:19;;;;;;;;;;;;;;;19.29;38.96;95652.63;10435317;28;2906;-50
2022/12/02 10:18:20;;;;;;;;;;;;;;;19.26;38.93;95647.91;10439289;28;2807;-50
2022/12/02 10:23:21;;;;;;;;;;;;;;;19.16;39.09;95642.69;10446733;28;2909;-52
2022/12/02 10:28:25;;;;;;;;;;;;;;;19.15;39.03;95643.72;10427210;28;2907;-49
2022/12/02 10:33:26;;;;;;;;;;;;;;;19.10;38.98;95633.22;10439544;28;2949;-50
2022/12/02 10:38:33;;;;;;;;;;;;;;;19.16;39.00;95640.06;10438220;28;2424;-50
2022/12/02 10:43:33;;;;;;;;;;;;;;;19.09;39.19;95630.88;10442203;28;2844;-52
2022/12/02 10:48:36;;;;;;;;;;;;;;;19.11;38.95;95623.50;10445945;28;2876;-51
2022/12/02 10:53:36;;;;;;;;;;;;;;;19.06;38.92;95626.16;10447914;28;2975;-50
2022/12/02 10:58:37;;;;;;;;;;;;;;;18.98;39.19;95618.84;10441932;28;2899;-51
2022/12/02 11:03:37;;;;;;;;;;;;;;;18.94;38.97;95621.19;10430092;28;3033;-52
2022/12/02 11:08:41;;;;;;;;;;;;;;;18.91;38.91;95610.44;10434668;28;2848;-49
2022/12/02 11:13:58;;;;;;;;;;;;;;;18.88;38.97;95616.19;10439730;28;3021;-52
2022/12/02 11:19:07;;;;;;;;;;;;;;;18.90;38.81;95607.00;10444837;28;2905;-52
2022/12/02 11:24:30;;;;;;;;;;;;;;;18.87;38.87;95599.69;10443114;28;2830;-51
2022/12/02 11:29:40;;;;;;;;;;;;;;;18.83;38.90;95603.88;10416820;28;2847;-53
2022/12/02 11:34:41;;;;;;;;;;;;;;;18.79;38.87;95597.59;10437832;28;2851;-50
2022/12/02 11:39:41;;;;;;;;;;;;;;;18.72;38.99;95607.56;10434970;28;2823;-51
2022/12/02 11:44:42;;;;;;;;;;;;;;;18.75;39.04;95601.81;10435581;28;2822;-50
2022/12/02 11:49:42;;;;;;;;;;;;;;;18.83;38.93;95596.00;10432806;28;2365;-51
2022/12/02 11:54:44;;;;;;;;;;;;;;;18.86;38.97;95595.47;10432344;28;2926;-49
2022/12/02 11:59:44;;;;;;;;;;;;;;;18.91;38.99;95589.41;10437744;28;2816;-51
2022/12/02 12:04:45;;;;;;;;;;;;;;;18.95;39.01;95579.94;10437103;28;2831;-52
2022/12/02 12:09:55;;;;;;;;;;;;;;;18.99;38.89;95589.66;10437848;28;2521;-50
2022/12/02 12:15:02;;;;;;;;;;;;;;;19.03;38.74;95588.06;10438493;28;2879;-51
2022/12/02 12:20:03;;;;;;;;;;;;;;;19.01;38.92;95578.88;10447158;28;2905;-57
2022/12/02 12:25:22;;;;;;;;;;;;;;;19.06;38.87;95574.38;10436648;28;2890;-55
2022/12/02 12:30:23;;;;;;;;;;;;;;;19.02;38.95;95564.72;10438930;28;2895;-51
2022/12/02 12:35:23;;;;;;;;;;;;;;;19.18;38.57;95568.84;10442417;28;2883;-50
2022/12/02 12:40:23;;;;;;;;;;;;;;;19.36;38.56;95555.13;10436805;28;2886;-50
2022/12/02 12:45:23;;;;;;;;;;;;;;;19.48;38.22;95561.66;10438356;28;2594;-50
2022/12/02 12:50:24;;;;;;;;;;;;;;;19.68;38.50;95557.34;10448330;28;2880;-48
2022/12/02 12:55:24;;;;;;;;;;;;;;;19.81;38.27;95559.34;10430932;28;3045;-50
2022/12/02 13:00:25;;;;;;;;;;;;;;;19.92;37.83;95547.72;10434026;28;2914;-59
2022/12/02 13:05:25;;;;;;;;;;;;;;;19.89;37.82;95553.50;10439519;28;3037;-53
2022/12/02 13:10:26;;;;;;;;;;;;;;;19.81;37.90;95556.72;10432071;28;2922;-51
2022/12/02 13:15:26;;;;;;;;;;;;;;;19.72;38.00;95550.47;10429777;28;2923;-52
2022/12/02 13:20:26;;;;;;;;;;;;;;;19.66;38.47;95548.94;10437393;28;3009;-51
2022/12/02 13:25:27;;;;;;;;;;;;;;;19.63;38.69;95549.47;10438726;28;2894;-54
2022/12/02 13:30:27;;;;;;;;;;;;;;;19.73;38.39;95554.66;10432742;28;2994;-52
2022/12/02 13:35:27;;;;;;;;;;;;;;;19.89;38.27;95558.75;10432332;28;2846;-50
2022/12/02 13:40:28;;;;;;;;;;;;;;;19.79;38.55;95558.84;10430059;28;2960;-53
2022/12/02 13:45:29;;;;;;;;;;;;;;;19.75;38.70;95563.06;10431365;28;2848;-52
2022/12/02 13:50:29;;;;;;;;;;;;;;;19.70;38.81;95555.22;10436013;28;2892;-55
2022/12/02 13:55:29;;;;;;;;;;;;;;;19.67;38.72;95566.28;10446317;28;2926;-53
2022/12/02 14:00:30;;;;;;;;;;;;;;;19.65;38.75;95565.75;10426374;28;2807;-53
2022/12/02 14:05:30;;;;;;;;;;;;;;;19.63;38.84;95573.13;10438942;28;2875;-53
2022/12/02 14:10:35;;;;;;;;;;;;;;;19.59;38.92;95565.00;10434588;28;2892;-54
2022/12/02 14:15:35;;;;;;;;;;;;;;;19.63;38.84;95573.94;10432305;28;2934;-54
2022/12/02 14:20:35;;;;;;;;;;;;;;;19.58;38.91;95573.19;10426197;28;2851;-51
2022/12/02 14:25:36;;;;;;;;;;;;;;;19.61;38.89;95578.66;10423247;28;2440;-54
2022/12/02 14:30:36;;;;;;;;;;;;;;;19.62;38.96;95574.22;10429297;28;2883;-51
2022/12/02 14:35:37;;;;;;;;;;;;;;;19.69;38.58;95585.19;10422130;28;2834;-53
2022/12/02 14:40:37;;;;;;;;;;;;;;;19.75;38.68;95578.84;10427153;28;2807;-49
2022/12/02 14:45:37;;;;;;;;;;;;;;;19.78;38.67;95576.47;10431787;28;2903;-50
2022/12/02 14:50:37;;;;;;;;;;;;;;;19.86;38.38;95580.38;10422800;28;2807;-52
2022/12/02 14:55:38;;;;;;;;;;;;;;;19.92;38.23;95584.53;10434557;28;3007;-54
2022/12/02 15:00:38;;;;;;;;;;;;;;;19.94;37.96;95585.06;10439572;28;2875;-51
2022/12/02 15:05:39;;;;;;;;;;;;;;;20.01;37.87;95590.81;10437981;28;2880;-51
2022/12/02 15:10:44;;;;;;;;;;;;;;;20.06;37.78;95591.53;10439196;28;2866;-52
2022/12/02 15:15:45;;;;;;;;;;;;;;;20.10;37.36;95591.78;10440788;28;2854;-52
2022/12/02 15:20:45;;;;;;;;;;;;;;;20.18;37.80;95588.56;10438499;28;2824;-53
2022/12/02 15:25:45;;;;;;;;;;;;;;;20.22;37.70;95590.41;10432548;28;2887;-54
2022/12/02 15:30:46;;;;;;;;;;;;;;;20.25;37.36;95589.06;10439646;28;2929;-52
2022/12/02 15:35:46;;;;;;;;;;;;;;;20.28;37.41;95593.78;10443307;28;2950;-53
2022/12/02 15:40:46;;;;;;;;;;;;;;;20.33;37.34;95593.75;10431034;28;3076;-54
2022/12/02 15:45:47;;;;;;;;;;;;;;;20.40;37.18;95593.44;10439249;28;2954;-53
2022/12/02 15:50:47;;;;;;;;;;;;;;;20.42;36.83;95593.94;10440802;28;2894;-53
2022/12/02 15:55:48;;;;;;;;;;;;;;;20.47;36.91;95597.31;10440271;28;2936;-51
2022/12/02 16:00:49;;;;;;;;;;;;;;;20.52;36.33;95596.50;10430064;28;2449;-51
2022/12/02 16:05:49;;;;;;;;;;;;;;;20.55;37.19;95598.56;10434762;28;2866;-52
2022/12/02 16:10:50;;;;;;;;;;;;;;;20.56;36.98;95600.94;10436097;28;2878;-51
2022/12/02 16:15:50;;;;;;;;;;;;;;;20.61;36.85;95605.38;10443137;28;3309;-52
2022/12/02 16:20:50;;;;;;;;;;;;;;;20.64;37.18;95608.25;10436009;28;2389;-54
2022/12/02 16:25:51;;;;;;;;;;;;;;;20.66;37.10;95611.38;10431554;28;2559;-54
2022/12/02 16:30:51;;;;;;;;;;;;;;;20.78;37.08;95613.63;10410365;28;2893;-51
2022/12/02 16:35:52;;;;;;;;;;;;;;;20.81;36.92;95610.47;10429959;28;2862;-54
2022/12/02 16:40:52;;;;;;;;;;;;;;;20.88;36.99;95613.53;10428311;28;2444;-52
2022/12/02 16:45:53;;;;;;;;;;;;;;;20.88;36.96;95611.69;10431771;28;2787;-50
2022/12/02 16:50:53;;;;;;;;;;;;;;;20.90;36.58;95612.19;10441581;28;2999;-48
2022/12/02 16:55:53;;;;;;;;;;;;;;;20.91;36.97;95613.78;10412133;28;2444;-53
2022/12/02 17:00:53;;;;;;;;;;;;;;;21.05;36.75;95620.00;10437924;28;2862;-50
2022/12/02 17:05:54;;;;;;;;;;;;;;;21.00;36.72;95622.63;10433152;28;2843;-54
2022/12/02 17:10:55;;;;;;;;;;;;;;;21.02;36.56;95631.06;10424558;28;2950;-49
2022/12/02 17:15:55;;;;;;;;;;;;;;;21.02;35.98;95620.53;10423798;28;2881;-61
2022/12/02 17:20:55;;;;;;;;;;;;;;;21.00;35.67;95625.28;10436342;28;2943;-53
2022/12/02 17:25:55;;;;;;;;;;;;;;;20.99;35.66;95631.63;10438963;28;2922;-48
2022/12/02 17:30:56;;;;;;;;;;;;;;;20.96;36.04;95629.53;10433979;28;2483;-52
2022/12/02 17:35:56;;;;;;;;;;;;;;;20.96;35.95;95632.16;10435129;28;2998;-52
2022/12/02 17:41:11;;;;;;;;;;;;;;;20.96;35.62;95626.91;10447621;28;2393;-54
2022/12/02 17:46:12;;;;;;;;;;;;;;;20.98;36.76;95629.25;10449284;28;2997;-52
2022/12/02 17:51:12;;;;;;;;;;;;;;;21.02;37.06;95638.19;10446254;28;2931;-53
2022/12/02 17:56:12;;;;;;;;;;;;;;;21.10;36.92;95634.97;10449588;28;3033;-51
2022/12/02 18:01:13;;;;;;;;;;;;;;;21.19;36.94;95635.13;10428895;28;2903;-52
2022/12/02 18:06:13;;;;;;;;;;;;;;;21.20;36.05;95624.31;10442858;28;2573;-50
2022/12/02 18:11:13;;;;;;;;;;;;;;;21.25;34.76;95628.72;10449178;28;2871;-49
2022/12/02 18:16:13;;;;;;;;;;;;;;;21.22;34.35;95624.03;10442867;28;2832;-53
2022/12/02 18:21:14;;;;;;;;;;;;;;;21.20;35.88;95620.91;10450781;28;2456;-52
2022/12/02 18:26:14;;;;;;;;;;;;;;;21.27;36.47;95627.41;10447633;28;2464;-52
2022/12/02 18:31:14;;;;;;;;;;;;;;;21.20;36.33;95620.91;10449240;28;2929;-49
2022/12/02 18:36:16;;;;;;;;;;;;;;;21.19;36.47;95620.09;10417340;28;3069;-51
2022/12/02 18:41:17;;;;;;;;;;;;;;;21.19;36.62;95611.41;10458585;28;2433;-50
2022/12/02 18:46:18;;;;;;;;;;;;;;;21.21;36.41;95607.44;10448477;28;3023;-49
2022/12/02 18:51:18;;;;;;;;;;;;;;;21.23;36.49;95612.41;10451512;28;2389;-52
2022/12/02 18:56:18;;;;;;;;;;;;;;;21.25;36.82;95603.16;10452999;28;2998;-54
2022/12/02 19:01:19;;;;;;;;;;;;;;;21.30;37.24;95607.59;10456710;28;2859;-50
2022/12/02 19:06:19;;;;;;;;;;;;;;;21.26;37.10;95599.47;10459757;28;2922;-51
2022/12/02 19:11:19;;;;;;;;;;;;;;;21.27;36.68;95601.03;10442958;28;2873;-51
2022/12/02 19:16:19;;;;;;;;;;;;;;;21.27;36.64;95598.41;10457659;28;3013;-51
2022/12/02 19:21:20;;;;;;;;;;;;;;;21.29;36.59;95598.91;10450475;28;2867;-53
2022/12/02 19:26:21;;;;;;;;;;;;;;;21.28;37.32;95607.88;10453600;28;2890;-54
2022/12/02 19:31:21;;;;;;;;;;;;;;;21.29;36.67;95609.44;10449180;28;2882;-50
2022/12/02 19:36:21;;;;;;;;;;;;;;;21.30;36.61;95616.31;10442591;28;3019;-52
2022/12/02 19:41:22;;;;;;;;;;;;;;;21.30;36.96;95618.94;10452879;28;2893;-50
2022/12/02 19:46:23;;;;;;;;;;;;;;;21.36;38.19;95617.81;10448181;28;2991;-53
2022/12/02 19:51:23;;;;;;;;;;;;;;;21.33;37.19;95614.97;10444655;28;2918;-52
2022/12/02 19:56:23;;;;;;;;;;;;;;;21.33;37.09;95620.22;10451476;28;3001;-51
2022/12/02 20:01:23;;;;;;;;;;;;;;;21.35;36.41;95623.38;10448487;28;2899;-48
2022/12/02 20:06:24;;;;;;;;;;;;;;;21.37;38.09;95618.59;10449149;28;2902;-51
2022/12/02 20:11:24;;;;;;;;;;;;;;;21.38;37.13;95617.53;10449806;28;2896;-52
2022/12/02 20:16:24;;;;;;;;;;;;;;;21.39;36.10;95627.03;10455174;28;2890;-49
2022/12/02 20:21:25;;;;;;;;;;;;;;;21.41;36.45;95614.34;10450412;28;2875;-54
2022/12/02 20:26:25;;;;;;;;;;;;;;;21.41;36.04;95624.88;10449107;28;2409;-52
2022/12/02 20:31:26;;;;;;;;;;;;;;;21.42;35.81;95627.22;10430606;28;2900;-53
2022/12/02 20:36:26;;;;;;;;;;;;;;;21.42;36.64;95629.06;10448773;28;2931;-51
2022/12/02 20:41:26;;;;;;;;;;;;;;;21.42;36.56;95629.88;10449691;28;3136;-50
2022/12/02 20:46:27;;;;;;;;;;;;;;;21.42;36.15;95631.72;10450441;28;2964;-55
2022/12/02 20:51:27;;;;;;;;;;;;;;;21.41;36.83;95624.88;10446762;28;2907;-50
2022/12/02 20:56:27;;;;;;;;;;;;;;;21.41;35.75;95627.53;10448746;28;2973;-50
2022/12/02 21:01:28;;;;;;;;;;;;;;;21.39;36.84;95625.16;10447402;28;2852;-48
2022/12/02 21:06:28;;;;;;;;;;;;;;;21.39;36.76;95627.03;10451866;28;2836;-54
2022/12/02 21:11:28;;;;;;;;;;;;;;;21.38;36.73;95634.13;10449959;28;2903;-52
2022/12/02 21:16:29;;;;;;;;;;;;;;;21.38;36.27;95633.34;10444749;28;2440;-54
2022/12/02 21:21:29;;;;;;;;;;;;;;;21.36;36.55;95633.63;10446418;28;2898;-52
2022/12/02 21:26:30;;;;;;;;;;;;;;;21.37;37.61;95637.06;10454288;28;2847;-52
2022/12/02 21:31:30;;;;;;;;;;;;;;;21.38;36.48;95633.34;10441294;28;2897;-50
2022/12/02 21:36:30;;;;;;;;;;;;;;;21.35;37.26;95626.00;10443399;28;2976;-49
2022/12/02 21:41:30;;;;;;;;;;;;;;;21.33;36.83;95625.50;10447238;28;2957;-54
2022/12/02 21:46:31;;;;;;;;;;;;;;;21.32;37.00;95634.47;10449525;28;2907;-50
2022/12/02 21:51:31;;;;;;;;;;;;;;;21.31;37.46;95643.47;10441636;28;3037;-53
2022/12/02 21:56:32;;;;;;;;;;;;;;;21.30;37.37;95633.97;10448870;28;2996;-54
2022/12/02 22:01:39;;;;;;;;;;;;;;;20.99;35.50;95647.44;10454760;28;2896;-50
2022/12/02 22:06:39;;;;;;;;;;;;;;;21.12;37.10;95647.88;10441826;28;2835;-54
2022/12/02 22:11:40;;;;;;;;;;;;;;;21.18;36.80;95647.53;10447393;28;2852;-49
2022/12/02 22:16:40;;;;;;;;;;;;;;;21.20;36.90;95642.78;10463219;28;2988;-52
2022/12/02 22:21:40;;;;;;;;;;;;;;;21.13;36.66;95637.03;10460110;28;2915;-52
2022/12/02 22:26:40;;;;;;;;;;;;;;;21.16;37.17;95635.69;10458275;28;2871;-51
2022/12/02 22:31:41;;;;;;;;;;;;;;;21.17;37.12;95635.41;10458818;28;2781;-53
2022/12/02 22:36:41;;;;;;;;;;;;;;;21.18;36.67;95630.94;10462602;28;2895;-51
2022/12/02 22:41:42;;;;;;;;;;;;;;;21.18;37.23;95633.56;10454901;28;2410;-50
2022/12/02 22:46:42;;;;;;;;;;;;;;;21.16;38.51;95635.69;10456282;28;2882;-53
2022/12/02 22:51:42;;;;;;;;;;;;;;;21.19;38.40;95630.66;10448148;28;2966;-52
2022/12/02 22:56:43;;;;;;;;;;;;;;;21.15;38.14;95624.38;10448111;28;2911;-48
2022/12/02 23:01:43;;;;;;;;;;;;;;;21.14;38.23;95627.28;10449220;28;2970;-51
2022/12/02 23:06:43;;;;;;;;;;;;;;;21.11;38.06;95638.38;10438395;28;2894;-51
2022/12/02 23:11:43;;;;;;;;;;;;;;;21.10;38.30;95642.88;10442320;28;2907;-52
2022/12/02 23:16:44;;;;;;;;;;;;;;;21.07;38.46;95632.88;10447413;28;2881;-51
2022/12/02 23:21:45;;;;;;;;;;;;;;;21.05;38.32;95635.81;10450715;28;2468;-48
2022/12/02 23:26:46;;;;;;;;;;;;;;;21.03;38.44;95634.50;10429757;28;2856;-52
2022/12/02 23:31:46;;;;;;;;;;;;;;;21.01;38.44;95636.59;10446905;28;2954;-52
2022/12/02 23:36:46;;;;;;;;;;;;;;;20.99;38.47;95642.16;10417616;28;2946;-53
2022/12/02 23:41:46;;;;;;;;;;;;;;;20.97;38.13;95632.97;10438047;28;2452;-50
2022/12/02 23:46:47;;;;;;;;;;;;;;;20.94;37.96;95620.31;10446184;28;2869;-48
2022/12/02 23:51:47;;;;;;;;;;;;;;;20.92;38.55;95625.88;10434267;28;2848;-52
2022/12/02 23:56:47;;;;;;;;;;;;;;;20.91;38.38;95629.59;10437535;28;2972;-52
